Time,TemperatureF,DewpointF,PressureIn,WindDirection,WindDirectionDegrees,WindSpeedMPH,WindSpeedGustMPH,Humidity,HourlyPrecipIn,Conditions,Clouds,dailyrainin,SoftwareType,DateUTC
2014-10-01 00:00:00,59.3,58.4,29.92,ESE,115,0.0,-999.0,97,0.00,,,0.01,Wunderground v.1.15,2014-10-01 04:00:00,
2014-10-01 00:02:00,59.3,58.4,29.92,ESE,115,0.0,-999.0,97,0.00,,,0.01,Wunderground v.1.15,2014-10-01 04:02:00,
2014-10-01 00:03:00,59.3,58.4,29.92,ESE,114,0.0,-999.0,97,0.00,,,0.01,Wunderground v.1.15,2014-10-01 04:03:00,
2014-10-01 00:08:00,59.7,59.1,29.92,ESE,114,0.0,-999.0,98,0.00,,,0.01,Wunderground v.1.15,2014-10-01 04:08:00,
2014-10-01 00:14:00,60.1,59.5,29.92,ESE,114,0.0,-999.0,98,0.00,,,0.01,Wunderground v.1.15,2014-10-01 04:14:00,
2014-10-01 00:16:00,60.2,59.6,29.92,ESE,115,0.0,-999.0,98,0.00,,,0.01,Wunderground v.1.15,2014-10-01 04:16:00,
2014-10-01 00:17:00,60.1,59.5,29.92,ESE,115,0.0,-999.0,98,0.00,,,0.01,Wunderground v.1.15,2014-10-01 04:17:00,
2014-10-01 00:19:00,59.9,59.3,29.92,ESE,115,0.0,-999.0,98,0.00,,,0.01,Wunderground v.1.15,2014-10-01 04:19:00,
2014-10-01 00:24:00,59.9,59.3,29.92,ESE,115,0.0,-999.0,98,0.00,,,0.00,Wunderground v.1.15,2014-10-01 04:24:00,
2014-10-01 00:25:00,59.9,59.3,29.92,ESE,114,0.0,-999.0,98,0.00,,,0.00,Wunderground v.1.15,2014-10-01 04:25:00,
2014-10-01 00:26:00,60.0,59.4,29.92,ESE,115,0.0,-999.0,98,0.00,,,0.00,Wunderground v.1.15,2014-10-01 04:26:00,
2014-10-01 00:32:00,60.0,59.4,29.91,ESE,115,0.0,-999.0,98,0.00,,,0.00,Wunderground v.1.15,2014-10-01 04:32:00,
2014-10-01 00:35:00,60.1,59.5,29.91,ESE,115,0.0,-999.0,98,0.00,,,0.00,Wunderground v.1.15,2014-10-01 04:35:00,
2014-10-01 00:36:00,60.2,59.6,29.91,ESE,114,0.0,-999.0,98,0.00,,,0.00,Wunderground v.1.15,2014-10-01 04:36:00,
2014-10-01 00:42:00,60.3,59.7,29.91,ESE,114,0.0,-999.0,98,0.00,,,0.00,Wunderground v.1.15,2014-10-01 04:42:00,
2014-10-01 00:44:00,60.3,59.7,29.91,ESE,114,0.0,-999.0,98,0.00,,,0.00,Wunderground v.1.15,2014-10-01 04:44:00,
2014-10-01 00:48:00,60.3,59.7,29.91,ESE,114,0.0,-999.0,98,0.00,,,0.00,Wunderground v.1.15,2014-10-01 04:48:00,
2014-10-01 00:49:00,60.2,59.6,29.91,ESE,114,0.0,-999.0,98,0.00,,,0.00,Wunderground v.1.15,2014-10-01 04:49:00,
2014-10-01 00:52:00,60.2,59.6,29.91,ESE,115,0.0,-999.0,98,0.00,,,0.00,Wunderground v.1.15,2014-10-01 04:52:00,
2014-10-01 00:56:00,60.1,59.5,29.91,ESE,115,0.0,-999.0,98,0.00,,,0.00,Wunderground v.1.15,2014-10-01 04:56:00,
2014-10-01 00:57:00,60.1,59.5,29.91,ESE,115,0.0,-999.0,98,0.00,,,0.00,Wunderground v.1.15,2014-10-01 04:57:00,
2014-10-01 00:58:00,60.0,59.4,29.91,ESE,115,0.0,-999.0,98,0.00,,,0.00,Wunderground v.1.15,2014-10-01 04:58:00,
2014-10-01 01:02:00,60.0,59.4,29.91,ESE,114,0.0,-999.0,98,0.00,,,0.00,Wunderground v.1.15,2014-10-01 05:02:00,
2014-10-01 01:03:00,60.1,59.5,29.91,ESE,115,0.0,-999.0,98,0.00,,,0.00,Wunderground v.1.15,2014-10-01 05:03:00,
2014-10-01 01:08:00,60.2,59.6,29.91,ESE,115,0.0,-999.0,98,0.00,,,0.00,Wunderground v.1.15,2014-10-01 05:08:00,
2014-10-01 01:09:00,60.2,59.6,29.91,ESE,115,0.0,-999.0,98,0.00,,,0.00,Wunderground v.1.15,2014-10-01 05:09:00,
2014-10-01 01:15:00,60.5,59.9,29.91,ESE,115,0.0,-999.0,98,0.00,,,0.00,Wunderground v.1.15,2014-10-01 05:15:00,
2014-10-01 01:16:00,60.6,60.0,29.91,ESE,115,0.0,-999.0,98,0.00,,,0.00,Wunderground v.1.15,2014-10-01 05:16:00,
2014-10-01 01:17:00,60.6,60.0,29.91,ESE,114,0.0,-999.0,98,0.00,,,0.00,Wunderground v.1.15,2014-10-01 05:17:00,
2014-10-01 01:23:00,60.6,60.0,29.91,ESE,114,0.0,-999.0,98,0.00,,,0.00,Wunderground v.1.15,2014-10-01 05:23:00,
2014-10-01 01:25:00,60.7,60.1,29.91,ESE,114,0.0,-999.0,98,0.00,,,0.00,Wunderground v.1.15,2014-10-01 05:25:00,
2014-10-01 01:27:00,60.7,60.1,29.91,ESE,114,0.0,-999.0,98,0.00,,,0.00,Wunderground v.1.15,2014-10-01 05:27:00,
2014-10-01 01:30:00,60.5,59.9,29.92,ESE,115,0.0,-999.0,98,0.00,,,0.00,Wunderground v.1.15,2014-10-01 05:30:00,
2014-10-01 01:32:00,60.5,59.9,29.91,ESE,115,0.0,-999.0,98,0.00,,,0.00,Wunderground v.1.15,2014-10-01 05:32:00,
2014-10-01 01:33:00,60.5,59.9,29.92,ESE,114,0.0,-999.0,98,0.00,,,0.00,Wunderground v.1.15,2014-10-01 05:33:00,
2014-10-01 01:38:00,60.5,59.9,29.92,ESE,115,1.0,-999.0,98,0.00,,,0.00,Wunderground v.1.15,2014-10-01 05:38:00,
2014-10-01 01:39:00,60.6,60.0,29.92,ESE,114,0.0,-999.0,98,0.00,,,0.00,Wunderground v.1.15,2014-10-01 05:39:00,
2014-10-01 01:43:00,61.0,60.4,29.91,ESE,115,0.0,-999.0,98,0.00,,,0.00,Wunderground v.1.15,2014-10-01 05:43:00,
2014-10-01 01:44:00,61.1,60.5,29.91,ESE,115,0.0,-999.0,98,0.00,,,0.00,Wunderground v.1.15,2014-10-01 05:44:00,
2014-10-01 01:47:00,61.3,60.7,29.91,ESE,115,0.0,-999.0,98,0.00,,,0.00,Wunderground v.1.15,2014-10-01 05:47:00,
2014-10-01 01:50:00,61.3,60.7,29.91,ESE,115,0.0,-999.0,98,0.00,,,0.00,Wunderground v.1.15,2014-10-01 05:50:00,
2014-10-01 01:53:00,61.2,60.6,29.91,ESE,114,0.0,-999.0,98,0.00,,,0.00,Wunderground v.1.15,2014-10-01 05:53:00,
2014-10-01 01:56:00,60.9,60.3,29.91,ESE,115,0.0,-999.0,98,0.00,,,0.00,Wunderground v.1.15,2014-10-01 05:56:00,
2014-10-01 02:01:00,60.7,60.1,29.91,ESE,114,0.0,-999.0,98,0.00,,,0.00,Wunderground v.1.15,2014-10-01 06:01:00,
2014-10-01 02:06:00,60.6,60.0,29.91,ESE,115,0.0,-999.0,98,0.00,,,0.00,Wunderground v.1.15,2014-10-01 06:06:00,
2014-10-01 02:11:00,60.7,60.1,29.91,ESE,114,0.0,-999.0,98,0.00,,,0.00,Wunderground v.1.15,2014-10-01 06:11:00,
2014-10-01 02:12:00,60.7,60.1,29.91,ESE,115,0.0,-999.0,98,0.00,,,0.00,Wunderground v.1.15,2014-10-01 06:12:00,
2014-10-01 02:17:00,60.7,60.1,29.91,ESE,115,0.0,-999.0,98,0.00,,,0.00,Wunderground v.1.15,2014-10-01 06:17:00,
2014-10-01 02:22:00,60.5,59.9,29.91,ESE,115,0.0,-999.0,98,0.00,,,0.00,Wunderground v.1.15,2014-10-01 06:22:00,
2014-10-01 02:27:00,60.3,59.7,29.91,ESE,114,0.0,-999.0,98,0.00,,,0.00,Wunderground v.1.15,2014-10-01 06:27:00,
2014-10-01 02:32:00,60.2,59.6,29.91,ESE,115,0.0,-999.0,98,0.00,,,0.00,Wunderground v.1.15,2014-10-01 06:32:00,
2014-10-01 02:33:00,60.2,59.6,29.91,ESE,115,0.0,-999.0,98,0.00,,,0.00,Wunderground v.1.15,2014-10-01 06:33:00,
2014-10-01 02:38:00,60.2,59.6,29.91,ESE,115,0.0,-999.0,98,0.00,,,0.00,Wunderground v.1.15,2014-10-01 06:38:00,
2014-10-01 02:42:00,60.5,59.9,29.92,ESE,114,0.0,-999.0,98,0.00,,,0.00,Wunderground v.1.15,2014-10-01 06:42:00,
2014-10-01 02:43:00,60.5,59.9,29.91,ESE,114,0.0,-999.0,98,0.00,,,0.00,Wunderground v.1.15,2014-10-01 06:43:00,
2014-10-01 02:47:00,60.6,60.0,29.92,ESE,115,0.0,-999.0,98,0.00,,,0.00,Wunderground v.1.15,2014-10-01 06:47:00,
2014-10-01 02:48:00,60.6,60.0,29.92,ESE,114,0.0,-999.0,98,0.00,,,0.00,Wunderground v.1.15,2014-10-01 06:48:00,
2014-10-01 02:49:00,60.6,60.0,29.92,ESE,114,0.0,-999.0,98,0.00,,,0.00,Wunderground v.1.15,2014-10-01 06:49:00,
2014-10-01 02:52:00,60.4,59.8,29.92,ESE,115,0.0,-999.0,98,0.00,,,0.00,Wunderground v.1.15,2014-10-01 06:52:00,
2014-10-01 02:53:00,60.3,59.7,29.92,ESE,114,0.0,-999.0,98,0.00,,,0.00,Wunderground v.1.15,2014-10-01 06:53:00,
2014-10-01 02:54:00,60.2,59.6,29.92,ESE,115,0.0,-999.0,98,0.00,,,0.00,Wunderground v.1.15,2014-10-01 06:54:00,
2014-10-01 02:57:00,59.7,59.1,29.92,ESE,114,0.0,-999.0,98,0.00,,,0.00,Wunderground v.1.15,2014-10-01 06:57:00,
2014-10-01 02:59:00,59.7,59.1,29.92,ESE,115,0.0,-999.0,98,0.00,,,0.00,Wunderground v.1.15,2014-10-01 06:59:00,
2014-10-01 03:02:00,60.1,59.5,29.92,ESE,115,0.0,-999.0,98,0.00,,,0.00,Wunderground v.1.15,2014-10-01 07:02:00,
2014-10-01 03:04:00,60.2,59.6,29.92,ESE,115,0.0,-999.0,98,0.00,,,0.00,Wunderground v.1.15,2014-10-01 07:04:00,
2014-10-01 03:08:00,60.6,60.0,29.92,ESE,115,0.0,-999.0,98,0.00,,,0.00,Wunderground v.1.15,2014-10-01 07:08:00,
2014-10-01 03:09:00,60.7,60.1,29.92,ESE,115,0.0,-999.0,98,0.00,,,0.00,Wunderground v.1.15,2014-10-01 07:09:00,
2014-10-01 03:10:00,60.7,60.1,29.92,ESE,114,0.0,-999.0,98,0.00,,,0.00,Wunderground v.1.15,2014-10-01 07:10:00,
2014-10-01 03:13:00,60.8,60.2,29.92,ESE,115,0.0,-999.0,98,0.00,,,0.00,Wunderground v.1.15,2014-10-01 07:13:00,
2014-10-01 03:14:00,60.8,60.2,29.92,ESE,115,0.0,-999.0,98,0.00,,,0.00,Wunderground v.1.15,2014-10-01 07:14:00,
2014-10-01 03:16:00,60.6,60.0,29.92,ESE,115,0.0,-999.0,98,0.00,,,0.00,Wunderground v.1.15,2014-10-01 07:16:00,
2014-10-01 03:18:00,60.5,59.9,29.92,ESE,115,0.0,-999.0,98,0.00,,,0.00,Wunderground v.1.15,2014-10-01 07:18:00,
2014-10-01 03:19:00,60.5,59.9,29.92,ESE,115,0.0,-999.0,98,0.00,,,0.00,Wunderground v.1.15,2014-10-01 07:19:00,
2014-10-01 03:21:00,60.5,59.9,29.92,ESE,115,0.0,-999.0,98,0.00,,,0.00,Wunderground v.1.15,2014-10-01 07:21:00,
2014-10-01 03:24:00,60.5,59.9,29.92,ESE,115,0.0,-999.0,98,0.00,,,0.00,Wunderground v.1.15,2014-10-01 07:24:00,
2014-10-01 03:27:00,60.5,59.9,29.92,ESE,115,0.0,-999.0,98,0.00,,,0.00,Wunderground v.1.15,2014-10-01 07:27:00,
2014-10-01 03:29:00,60.5,59.9,29.92,ESE,115,0.0,-999.0,98,0.00,,,0.00,Wunderground v.1.15,2014-10-01 07:29:00,
2014-10-01 03:32:00,60.5,59.9,29.92,ESE,115,0.0,-999.0,98,0.00,,,0.00,Wunderground v.1.15,2014-10-01 07:32:00,
2014-10-01 03:34:00,60.5,59.9,29.92,ESE,115,0.0,-999.0,98,0.00,,,0.00,Wunderground v.1.15,2014-10-01 07:34:00,
2014-10-01 03:37:00,60.3,59.7,29.92,ESE,115,0.0,-999.0,98,0.00,,,0.00,Wunderground v.1.15,2014-10-01 07:37:00,
2014-10-01 03:39:00,60.1,59.5,29.92,ESE,115,0.0,-999.0,98,0.00,,,0.00,Wunderground v.1.15,2014-10-01 07:39:00,
2014-10-01 03:40:00,60.1,59.5,29.92,ESE,115,0.0,-999.0,98,0.00,,,0.00,Wunderground v.1.15,2014-10-01 07:40:00,
2014-10-01 03:43:00,60.0,59.4,29.92,ESE,115,0.0,-999.0,98,0.00,,,0.00,Wunderground v.1.15,2014-10-01 07:43:00,
2014-10-01 03:45:00,59.9,59.3,29.92,ESE,114,0.0,-999.0,98,0.00,,,0.00,Wunderground v.1.15,2014-10-01 07:45:00,
2014-10-01 03:46:00,59.8,59.2,29.92,ESE,115,0.0,-999.0,98,0.00,,,0.00,Wunderground v.1.15,2014-10-01 07:46:00,
2014-10-01 03:49:00,59.8,59.2,29.92,ESE,114,0.0,-999.0,98,0.00,,,0.00,Wunderground v.1.15,2014-10-01 07:49:00,
2014-10-01 03:50:00,59.7,59.1,29.92,ESE,115,0.0,-999.0,98,0.00,,,0.00,Wunderground v.1.15,2014-10-01 07:50:00,
2014-10-01 03:54:00,59.5,58.9,29.92,ESE,115,0.0,-999.0,98,0.00,,,0.00,Wunderground v.1.15,2014-10-01 07:54:00,
2014-10-01 03:55:00,59.4,58.8,29.92,ESE,115,0.0,-999.0,98,0.00,,,0.00,Wunderground v.1.15,2014-10-01 07:55:00,
2014-10-01 03:59:00,59.5,58.9,29.91,ESE,115,0.0,-999.0,98,0.00,,,0.00,Wunderground v.1.15,2014-10-01 07:59:00,
2014-10-01 04:00:00,59.5,58.9,29.91,ESE,114,0.0,-999.0,98,0.00,,,0.00,Wunderground v.1.15,2014-10-01 08:00:00,
2014-10-01 04:01:00,59.5,58.9,29.91,ESE,115,0.0,-999.0,98,0.00,,,0.00,Wunderground v.1.15,2014-10-01 08:01:00,
2014-10-01 04:05:00,59.5,58.9,29.91,ESE,115,0.0,-999.0,98,0.00,,,0.00,Wunderground v.1.15,2014-10-01 08:05:00,
2014-10-01 04:06:00,59.4,58.8,29.91,ESE,114,0.0,-999.0,98,0.00,,,0.00,Wunderground v.1.15,2014-10-01 08:06:00,
2014-10-01 04:10:00,59.2,58.6,29.91,ESE,114,0.0,-999.0,98,0.00,,,0.00,Wunderground v.1.15,2014-10-01 08:10:00,
2014-10-01 04:11:00,59.0,58.4,29.91,ESE,114,0.0,-999.0,98,0.00,,,0.00,Wunderground v.1.15,2014-10-01 08:11:00,
2014-10-01 04:15:00,59.0,58.4,29.91,ESE,115,0.0,-999.0,98,0.00,,,0.00,Wunderground v.1.15,2014-10-01 08:15:00,
2014-10-01 04:17:00,58.8,58.2,29.91,ESE,114,0.0,-999.0,98,0.00,,,0.00,Wunderground v.1.15,2014-10-01 08:17:00,
2014-10-01 04:20:00,58.6,58.0,29.92,ESE,115,0.0,-999.0,98,0.00,,,0.00,Wunderground v.1.15,2014-10-01 08:20:00,
2014-10-01 04:22:00,58.6,58.0,29.92,ESE,115,0.0,-999.0,98,0.00,,,0.00,Wunderground v.1.15,2014-10-01 08:22:00,
2014-10-01 04:25:00,58.5,57.9,29.92,ESE,115,0.0,-999.0,98,0.00,,,0.00,Wunderground v.1.15,2014-10-01 08:25:00,
2014-10-01 04:27:00,58.6,58.0,29.92,ESE,115,0.0,-999.0,98,0.00,,,0.00,Wunderground v.1.15,2014-10-01 08:27:00,
2014-10-01 04:31:00,58.6,58.0,29.92,ESE,115,0.0,-999.0,98,0.00,,,0.00,Wunderground v.1.15,2014-10-01 08:31:00,
2014-10-01 04:32:00,58.6,58.0,29.92,ESE,114,0.0,-999.0,98,0.00,,,0.00,Wunderground v.1.15,2014-10-01 08:32:00,
2014-10-01 04:36:00,58.8,58.2,29.92,ESE,115,0.0,-999.0,98,0.00,,,0.00,Wunderground v.1.15,2014-10-01 08:36:00,
2014-10-01 04:37:00,58.9,58.3,29.92,ESE,114,0.0,-999.0,98,0.00,,,0.00,Wunderground v.1.15,2014-10-01 08:37:00,
2014-10-01 04:41:00,59.0,58.4,29.92,ESE,114,0.0,-999.0,98,0.00,,,0.00,Wunderground v.1.15,2014-10-01 08:41:00,
2014-10-01 04:42:00,59.0,58.4,29.92,ESE,114,0.0,-999.0,98,0.00,,,0.00,Wunderground v.1.15,2014-10-01 08:42:00,
2014-10-01 04:43:00,59.0,58.4,29.92,ESE,114,0.0,-999.0,98,0.00,,,0.00,Wunderground v.1.15,2014-10-01 08:43:00,
2014-10-01 04:46:00,59.0,58.4,29.92,ESE,115,0.0,-999.0,98,0.00,,,0.00,Wunderground v.1.15,2014-10-01 08:46:00,
2014-10-01 04:47:00,59.0,58.4,29.92,ESE,115,0.0,-999.0,98,0.00,,,0.00,Wunderground v.1.15,2014-10-01 08:47:00,
2014-10-01 04:48:00,59.0,58.4,29.92,ESE,115,0.0,-999.0,98,0.00,,,0.00,Wunderground v.1.15,2014-10-01 08:48:00,
2014-10-01 04:52:00,59.0,58.4,29.92,ESE,115,0.0,-999.0,98,0.00,,,0.00,Wunderground v.1.15,2014-10-01 08:52:00,
2014-10-01 04:53:00,59.0,58.4,29.92,ESE,115,0.0,-999.0,98,0.00,,,0.00,Wunderground v.1.15,2014-10-01 08:53:00,
2014-10-01 04:54:00,59.0,58.4,29.92,ESE,115,0.0,-999.0,98,0.00,,,0.00,Wunderground v.1.15,2014-10-01 08:54:00,
2014-10-01 04:57:00,59.0,58.4,29.92,ESE,115,0.0,-999.0,98,0.00,,,0.00,Wunderground v.1.15,2014-10-01 08:57:00,
2014-10-01 04:58:00,58.9,58.3,29.92,ESE,115,0.0,-999.0,98,0.00,,,0.00,Wunderground v.1.15,2014-10-01 08:58:00,
2014-10-01 04:59:00,58.8,58.2,29.92,ESE,115,0.0,-999.0,98,0.00,,,0.00,Wunderground v.1.15,2014-10-01 08:59:00,
2014-10-01 05:02:00,58.7,58.1,29.92,ESE,115,0.0,-999.0,98,0.00,,,0.00,Wunderground v.1.15,2014-10-01 09:02:00,
2014-10-01 05:03:00,58.7,58.1,29.92,ESE,114,0.0,-999.0,98,0.00,,,0.00,Wunderground v.1.15,2014-10-01 09:03:00,
2014-10-01 05:05:00,58.7,58.1,29.92,ESE,114,0.0,-999.0,98,0.00,,,0.00,Wunderground v.1.15,2014-10-01 09:05:00,
2014-10-01 05:09:00,58.7,58.1,29.92,ESE,115,0.0,-999.0,98,0.00,,,0.00,Wunderground v.1.15,2014-10-01 09:09:00,
2014-10-01 05:10:00,58.8,58.2,29.92,ESE,114,0.0,-999.0,98,0.00,,,0.00,Wunderground v.1.15,2014-10-01 09:10:00,
2014-10-01 05:14:00,59.0,58.4,29.92,ESE,115,0.0,-999.0,98,0.00,,,0.00,Wunderground v.1.15,2014-10-01 09:14:00,
2014-10-01 05:15:00,59.0,58.4,29.92,ESE,114,0.0,-999.0,98,0.00,,,0.00,Wunderground v.1.15,2014-10-01 09:15:00,
2014-10-01 05:19:00,59.0,58.4,29.92,ESE,115,0.0,-999.0,98,0.00,,,0.00,Wunderground v.1.15,2014-10-01 09:19:00,
2014-10-01 05:21:00,59.0,58.4,29.92,ESE,115,0.0,-999.0,98,0.00,,,0.00,Wunderground v.1.15,2014-10-01 09:21:00,
2014-10-01 05:25:00,59.0,58.4,29.92,ESE,115,0.0,-999.0,98,0.00,,,0.00,Wunderground v.1.15,2014-10-01 09:25:00,
2014-10-01 05:26:00,59.0,58.4,29.92,ESE,115,0.0,-999.0,98,0.00,,,0.00,Wunderground v.1.15,2014-10-01 09:26:00,
2014-10-01 05:30:00,59.1,58.5,29.92,ESE,114,0.0,-999.0,98,0.00,,,0.00,Wunderground v.1.15,2014-10-01 09:30:00,
2014-10-01 05:31:00,59.1,58.5,29.92,ESE,115,0.0,-999.0,98,0.00,,,0.00,Wunderground v.1.15,2014-10-01 09:31:00,
2014-10-01 05:35:00,59.0,58.4,29.92,ESE,115,0.0,-999.0,98,0.00,,,0.00,Wunderground v.1.15,2014-10-01 09:35:00,
2014-10-01 05:37:00,59.0,58.4,29.92,ESE,114,0.0,-999.0,98,0.00,,,0.00,Wunderground v.1.15,2014-10-01 09:37:00,
2014-10-01 05:41:00,59.0,58.4,29.92,ESE,115,0.0,-999.0,98,0.00,,,0.00,Wunderground v.1.15,2014-10-01 09:41:00,
2014-10-01 05:42:00,59.0,58.4,29.92,ESE,115,0.0,-999.0,98,0.00,,,0.00,Wunderground v.1.15,2014-10-01 09:42:00,
2014-10-01 05:45:00,59.0,58.4,29.93,ESE,115,0.0,-999.0,98,0.00,,,0.00,Wunderground v.1.15,2014-10-01 09:45:00,
2014-10-01 05:46:00,59.0,58.4,29.93,ESE,114,0.0,-999.0,98,0.00,,,0.00,Wunderground v.1.15,2014-10-01 09:46:00,
2014-10-01 05:47:00,59.0,58.4,29.93,ESE,114,0.0,-999.0,98,0.00,,,0.00,Wunderground v.1.15,2014-10-01 09:47:00,
2014-10-01 05:51:00,59.0,58.4,29.93,ESE,115,0.0,-999.0,98,0.00,,,0.00,Wunderground v.1.15,2014-10-01 09:51:00,
2014-10-01 05:52:00,59.0,58.4,29.93,ESE,115,0.0,-999.0,98,0.00,,,0.00,Wunderground v.1.15,2014-10-01 09:52:00,
2014-10-01 05:56:00,59.2,58.9,29.93,ESE,115,0.0,-999.0,99,0.00,,,0.00,Wunderground v.1.15,2014-10-01 09:56:00,
2014-10-01 05:57:00,59.3,59.0,29.93,ESE,114,0.0,-999.0,99,0.00,,,0.00,Wunderground v.1.15,2014-10-01 09:57:00,
2014-10-01 06:01:00,59.4,58.8,29.93,ESE,114,0.0,-999.0,98,0.00,,,0.00,Wunderground v.1.15,2014-10-01 10:01:00,
2014-10-01 06:03:00,59.4,58.8,29.93,ESE,115,0.0,-999.0,98,0.00,,,0.00,Wunderground v.1.15,2014-10-01 10:03:00,
2014-10-01 06:06:00,59.4,58.8,29.93,ESE,114,0.0,-999.0,98,0.00,,,0.00,Wunderground v.1.15,2014-10-01 10:06:00,
2014-10-01 06:07:00,59.4,58.8,29.93,ESE,115,0.0,-999.0,98,0.00,,,0.00,Wunderground v.1.15,2014-10-01 10:07:00,
2014-10-01 06:08:00,59.5,58.9,29.93,ESE,115,0.0,-999.0,98,0.00,,,0.00,Wunderground v.1.15,2014-10-01 10:08:00,
2014-10-01 06:12:00,59.6,59.0,29.94,ESE,115,0.0,-999.0,98,0.00,,,0.00,Wunderground v.1.15,2014-10-01 10:12:00,
2014-10-01 06:13:00,59.8,59.5,29.94,ESE,115,0.0,-999.0,99,0.00,,,0.00,Wunderground v.1.15,2014-10-01 10:13:00,
2014-10-01 06:17:00,60.3,60.0,29.94,ESE,114,0.0,-999.0,99,0.00,,,0.00,Wunderground v.1.15,2014-10-01 10:17:00,
2014-10-01 06:18:00,60.4,60.1,29.93,ESE,115,0.0,-999.0,99,0.00,,,0.00,Wunderground v.1.15,2014-10-01 10:18:00,
2014-10-01 06:19:00,60.5,60.2,29.93,ESE,115,0.0,-999.0,99,0.00,,,0.00,Wunderground v.1.15,2014-10-01 10:19:00,
2014-10-01 06:22:00,60.7,60.4,29.94,ESE,115,0.0,-999.0,99,0.00,,,0.00,Wunderground v.1.15,2014-10-01 10:22:00,
2014-10-01 06:23:00,60.7,60.4,29.94,ESE,115,0.0,-999.0,99,0.00,,,0.00,Wunderground v.1.15,2014-10-01 10:23:00,
2014-10-01 06:24:00,60.7,60.4,29.94,ESE,115,0.0,-999.0,99,0.00,,,0.00,Wunderground v.1.15,2014-10-01 10:24:00,
2014-10-01 06:27:00,60.7,60.4,29.94,ESE,115,0.0,-999.0,99,0.00,,,0.00,Wunderground v.1.15,2014-10-01 10:27:00,
2014-10-01 06:28:00,60.7,60.4,29.94,ESE,115,0.0,-999.0,99,0.00,,,0.00,Wunderground v.1.15,2014-10-01 10:28:00,
2014-10-01 06:29:00,60.7,60.4,29.94,ESE,115,0.0,-999.0,99,0.00,,,0.00,Wunderground v.1.15,2014-10-01 10:29:00,
2014-10-01 06:32:00,60.7,60.4,29.94,ESE,114,0.0,-999.0,99,0.00,,,0.00,Wunderground v.1.15,2014-10-01 10:32:00,
2014-10-01 06:34:00,60.6,60.3,29.94,ESE,115,0.0,-999.0,99,0.00,,,0.00,Wunderground v.1.15,2014-10-01 10:34:00,
2014-10-01 06:37:00,60.7,60.4,29.94,ESE,115,0.0,-999.0,99,0.00,,,0.00,Wunderground v.1.15,2014-10-01 10:37:00,
2014-10-01 06:40:00,60.7,60.4,29.94,ESE,115,0.0,-999.0,99,0.00,,,0.00,Wunderground v.1.15,2014-10-01 10:40:00,
2014-10-01 06:42:00,60.6,60.3,29.95,ESE,114,0.0,-999.0,99,0.00,,,0.00,Wunderground v.1.15,2014-10-01 10:42:00,
2014-10-01 06:45:00,60.6,60.3,29.95,ESE,115,0.0,-999.0,99,0.00,,,0.00,Wunderground v.1.15,2014-10-01 10:45:00,
2014-10-01 06:47:00,60.6,60.3,29.95,ESE,114,0.0,-999.0,99,0.00,,,0.00,Wunderground v.1.15,2014-10-01 10:47:00,
2014-10-01 06:50:00,60.6,60.3,29.95,ESE,114,0.0,-999.0,99,0.00,,,0.00,Wunderground v.1.15,2014-10-01 10:50:00,
2014-10-01 06:51:00,60.6,60.3,29.95,ESE,114,0.0,-999.0,99,0.00,,,0.00,Wunderground v.1.15,2014-10-01 10:51:00,
2014-10-01 06:53:00,60.6,60.3,29.95,ESE,114,0.0,-999.0,99,0.00,,,0.00,Wunderground v.1.15,2014-10-01 10:53:00,
2014-10-01 06:55:00,60.7,60.4,29.95,ESE,115,0.0,-999.0,99,0.00,,,0.00,Wunderground v.1.15,2014-10-01 10:55:00,
2014-10-01 06:56:00,60.7,60.4,29.95,ESE,114,0.0,-999.0,99,0.00,,,0.00,Wunderground v.1.15,2014-10-01 10:56:00,
2014-10-01 06:58:00,60.9,60.6,29.95,ESE,115,0.0,-999.0,99,0.00,,,0.00,Wunderground v.1.15,2014-10-01 10:58:00,
2014-10-01 07:01:00,61.0,60.7,29.95,ESE,115,0.0,-999.0,99,0.00,,,0.00,Wunderground v.1.15,2014-10-01 11:01:00,
2014-10-01 07:03:00,61.1,60.8,29.96,ESE,114,0.0,-999.0,99,0.00,,,0.00,Wunderground v.1.15,2014-10-01 11:03:00,
2014-10-01 07:06:00,61.2,60.9,29.96,ESE,114,0.0,-999.0,99,0.00,,,0.00,Wunderground v.1.15,2014-10-01 11:06:00,
2014-10-01 07:08:00,61.3,61.0,29.96,ESE,115,0.0,-999.0,99,0.00,,,0.00,Wunderground v.1.15,2014-10-01 11:08:00,
2014-10-01 07:11:00,61.3,61.0,29.96,ESE,114,0.0,-999.0,99,0.00,,,0.00,Wunderground v.1.15,2014-10-01 11:11:00,
2014-10-01 07:13:00,61.2,60.9,29.96,ESE,114,0.0,-999.0,99,0.00,,,0.00,Wunderground v.1.15,2014-10-01 11:13:00,
2014-10-01 07:16:00,61.2,60.9,29.96,ESE,114,0.0,-999.0,99,0.00,,,0.00,Wunderground v.1.15,2014-10-01 11:16:00,
2014-10-01 07:18:00,61.2,60.9,29.96,ESE,115,0.0,-999.0,99,0.00,,,0.00,Wunderground v.1.15,2014-10-01 11:18:00,
2014-10-01 07:22:00,61.2,60.9,29.96,ESE,115,0.0,-999.0,99,0.00,,,0.00,Wunderground v.1.15,2014-10-01 11:22:00,
2014-10-01 07:24:00,61.2,60.9,29.96,ESE,115,0.0,-999.0,99,0.00,,,0.00,Wunderground v.1.15,2014-10-01 11:24:00,
2014-10-01 07:27:00,61.1,60.8,29.96,ESE,114,0.0,-999.0,99,0.00,,,0.00,Wunderground v.1.15,2014-10-01 11:27:00,
2014-10-01 07:30:00,61.2,60.9,29.97,ESE,114,0.0,-999.0,99,0.00,,,0.00,Wunderground v.1.15,2014-10-01 11:30:00,
2014-10-01 07:32:00,61.2,60.9,29.97,ESE,115,0.0,-999.0,99,0.00,,,0.00,Wunderground v.1.15,2014-10-01 11:32:00,
2014-10-01 07:33:00,61.2,60.9,29.97,ESE,115,0.0,-999.0,99,0.00,,,0.00,Wunderground v.1.15,2014-10-01 11:33:00,
2014-10-01 07:35:00,61.2,60.9,29.97,ESE,115,0.0,-999.0,99,0.00,,,0.00,Wunderground v.1.15,2014-10-01 11:35:00,
2014-10-01 07:37:00,61.2,60.9,29.97,ESE,115,0.0,-999.0,99,0.00,,,0.00,Wunderground v.1.15,2014-10-01 11:37:00,
2014-10-01 07:38:00,61.2,60.9,29.97,ESE,114,0.0,-999.0,99,0.00,,,0.00,Wunderground v.1.15,2014-10-01 11:38:00,
2014-10-01 07:40:00,61.3,61.0,29.97,ESE,115,0.0,-999.0,99,0.00,,,0.00,Wunderground v.1.15,2014-10-01 11:40:00,
2014-10-01 07:43:00,61.2,60.9,29.97,ESE,114,0.0,-999.0,99,0.00,,,0.00,Wunderground v.1.15,2014-10-01 11:43:00,
2014-10-01 07:45:00,61.2,60.9,29.97,ESE,115,0.0,-999.0,99,0.00,,,0.00,Wunderground v.1.15,2014-10-01 11:45:00,
2014-10-01 07:48:00,61.1,60.8,29.97,ESE,115,0.0,-999.0,99,0.00,,,0.00,Wunderground v.1.15,2014-10-01 11:48:00,
2014-10-01 07:50:00,61.1,60.8,29.97,ESE,115,0.0,-999.0,99,0.00,,,0.00,Wunderground v.1.15,2014-10-01 11:50:00,
2014-10-01 07:53:00,61.1,60.8,29.97,ESE,115,0.0,-999.0,99,0.00,,,0.00,Wunderground v.1.15,2014-10-01 11:53:00,
2014-10-01 07:54:00,61.1,60.8,29.97,ESE,115,0.0,-999.0,99,0.00,,,0.00,Wunderground v.1.15,2014-10-01 11:54:00,
2014-10-01 07:55:00,61.1,60.8,29.97,ESE,114,0.0,-999.0,99,0.00,,,0.00,Wunderground v.1.15,2014-10-01 11:55:00,
2014-10-01 07:58:00,61.1,60.8,29.97,ESE,115,0.0,-999.0,99,0.00,,,0.00,Wunderground v.1.15,2014-10-01 11:58:00,
2014-10-01 07:59:00,61.3,61.0,29.97,ESE,115,0.0,-999.0,99,0.00,,,0.00,Wunderground v.1.15,2014-10-01 11:59:00,
2014-10-01 08:01:00,61.3,61.0,29.97,ESE,114,0.0,-999.0,99,0.00,,,0.00,Wunderground v.1.15,2014-10-01 12:01:00,
2014-10-01 08:04:00,61.6,61.3,29.97,ESE,114,0.0,-999.0,99,0.00,,,0.00,Wunderground v.1.15,2014-10-01 12:04:00,
2014-10-01 08:05:00,61.6,61.3,29.97,ESE,114,0.0,-999.0,99,0.00,,,0.00,Wunderground v.1.15,2014-10-01 12:05:00,
2014-10-01 08:07:00,61.8,61.5,29.97,ESE,115,0.0,-999.0,99,0.00,,,0.00,Wunderground v.1.15,2014-10-01 12:07:00,
2014-10-01 08:09:00,61.9,61.6,29.97,ESE,114,0.0,-999.0,99,0.00,,,0.00,Wunderground v.1.15,2014-10-01 12:09:00,
2014-10-01 08:10:00,62.0,61.7,29.97,ESE,115,0.0,-999.0,99,0.00,,,0.00,Wunderground v.1.15,2014-10-01 12:10:00,
2014-10-01 08:12:00,62.2,61.9,29.97,ESE,114,0.0,-999.0,99,0.00,,,0.00,Wunderground v.1.15,2014-10-01 12:12:00,
2014-10-01 08:14:00,62.3,62.0,29.97,ESE,115,0.0,-999.0,99,0.00,,,0.00,Wunderground v.1.15,2014-10-01 12:14:00,
2014-10-01 08:15:00,62.4,62.1,29.97,ESE,114,0.0,-999.0,99,0.00,,,0.00,Wunderground v.1.15,2014-10-01 12:15:00,
2014-10-01 08:17:00,62.5,62.2,29.97,ESE,114,0.0,-999.0,99,0.00,,,0.00,Wunderground v.1.15,2014-10-01 12:17:00,
2014-10-01 08:19:00,62.5,62.2,29.97,ESE,115,0.0,-999.0,99,0.00,,,0.00,Wunderground v.1.15,2014-10-01 12:19:00,
2014-10-01 08:20:00,62.5,62.2,29.97,ESE,114,0.0,-999.0,99,0.00,,,0.00,Wunderground v.1.15,2014-10-01 12:20:00,
2014-10-01 08:23:00,62.7,62.4,29.97,ESE,114,0.0,-999.0,99,0.00,,,0.00,Wunderground v.1.15,2014-10-01 12:23:00,
2014-10-01 08:24:00,63.0,62.7,29.97,ESE,115,0.0,-999.0,99,0.00,,,0.00,Wunderground v.1.15,2014-10-01 12:24:00,
2014-10-01 08:25:00,63.1,62.8,29.97,ESE,114,0.0,-999.0,99,0.00,,,0.00,Wunderground v.1.15,2014-10-01 12:25:00,
2014-10-01 08:28:00,63.6,63.3,29.98,ESE,115,0.0,-999.0,99,0.00,,,0.00,Wunderground v.1.15,2014-10-01 12:28:00,
2014-10-01 08:30:00,63.8,63.5,29.98,ESE,114,0.0,-999.0,99,0.00,,,0.00,Wunderground v.1.15,2014-10-01 12:30:00,
2014-10-01 08:33:00,64.0,63.7,29.98,ESE,115,0.0,-999.0,99,0.00,,,0.00,Wunderground v.1.15,2014-10-01 12:33:00,
2014-10-01 08:35:00,64.0,63.7,29.98,ESE,114,0.0,-999.0,99,0.00,,,0.00,Wunderground v.1.15,2014-10-01 12:35:00,
2014-10-01 08:38:00,64.1,63.8,29.98,ESE,115,0.0,-999.0,99,0.00,,,0.00,Wunderground v.1.15,2014-10-01 12:38:00,
2014-10-01 08:40:00,64.3,64.0,29.98,ESE,115,0.0,-999.0,99,0.00,,,0.00,Wunderground v.1.15,2014-10-01 12:40:00,
2014-10-01 08:41:00,64.3,64.0,29.98,ESE,115,0.0,-999.0,99,0.00,,,0.00,Wunderground v.1.15,2014-10-01 12:41:00,
2014-10-01 08:43:00,64.4,64.1,29.98,ESE,114,0.0,-999.0,99,0.00,,,0.00,Wunderground v.1.15,2014-10-01 12:43:00,
2014-10-01 08:46:00,64.6,64.3,29.98,ESE,115,0.0,-999.0,99,0.00,,,0.00,Wunderground v.1.15,2014-10-01 12:46:00,
2014-10-01 08:48:00,64.8,64.5,29.98,ESE,115,0.0,-999.0,99,0.00,,,0.00,Wunderground v.1.15,2014-10-01 12:48:00,
2014-10-01 08:51:00,64.9,64.6,29.98,ESE,115,1.0,-999.0,99,0.00,,,0.00,Wunderground v.1.15,2014-10-01 12:51:00,
2014-10-01 08:54:00,65.0,64.7,29.98,ESE,115,3.0,-999.0,99,0.00,,,0.00,Wunderground v.1.15,2014-10-01 12:54:00,
2014-10-01 08:56:00,65.0,64.7,29.98,ESE,115,3.0,-999.0,99,0.00,,,0.01,Wunderground v.1.15,2014-10-01 12:56:00,
2014-10-01 08:59:00,65.2,64.9,29.98,ESE,114,2.0,-999.0,99,0.00,,,0.01,Wunderground v.1.15,2014-10-01 12:59:00,
2014-10-01 09:01:00,65.4,65.1,29.98,ESE,114,0.0,-999.0,99,0.00,,,0.01,Wunderground v.1.15,2014-10-01 13:01:00,
2014-10-01 09:02:00,65.4,65.1,29.98,ESE,114,2.0,-999.0,99,0.00,,,0.01,Wunderground v.1.15,2014-10-01 13:02:00,
2014-10-01 09:04:00,65.4,65.1,29.98,East,92,0.0,-999.0,99,0.00,,,0.01,Wunderground v.1.15,2014-10-01 13:04:00,
2014-10-01 09:07:00,65.6,65.3,29.98,East,92,0.0,-999.0,99,0.00,,,0.01,Wunderground v.1.15,2014-10-01 13:07:00,
2014-10-01 09:09:00,65.8,65.5,29.98,East,88,0.0,-999.0,99,0.00,,,0.01,Wunderground v.1.15,2014-10-01 13:09:00,
2014-10-01 09:12:00,66.1,65.8,29.98,East,91,0.0,-999.0,99,0.00,,,0.01,Wunderground v.1.15,2014-10-01 13:12:00,
2014-10-01 09:15:00,66.3,66.0,29.98,ENE,70,4.0,-999.0,99,0.00,,,0.01,Wunderground v.1.15,2014-10-01 13:15:00,
2014-10-01 09:17:00,66.4,66.1,29.98,ENE,69,0.0,-999.0,99,0.00,,,0.01,Wunderground v.1.15,2014-10-01 13:17:00,
2014-10-01 09:20:00,66.5,66.2,29.98,ENE,69,0.0,-999.0,99,0.00,,,0.01,Wunderground v.1.15,2014-10-01 13:20:00,
2014-10-01 09:22:00,66.6,66.0,29.99,ENE,74,1.0,-999.0,98,0.00,,,0.01,Wunderground v.1.15,2014-10-01 13:22:00,
2014-10-01 09:25:00,66.9,66.3,29.99,ENE,72,0.0,-999.0,98,0.00,,,0.01,Wunderground v.1.15,2014-10-01 13:25:00,
2014-10-01 09:28:00,67.0,66.4,29.99,ENE,63,1.0,-999.0,98,0.00,,,0.01,Wunderground v.1.15,2014-10-01 13:28:00,
2014-10-01 09:30:00,67.0,66.1,29.99,East,81,1.0,-999.0,97,0.00,,,0.01,Wunderground v.1.15,2014-10-01 13:30:00,
2014-10-01 09:33:00,67.0,66.1,29.99,NNE,29,2.0,-999.0,97,0.00,,,0.01,Wunderground v.1.15,2014-10-01 13:33:00,
2014-10-01 09:36:00,67.2,66.0,29.99,NE,38,0.0,-999.0,96,0.00,,,0.01,Wunderground v.1.15,2014-10-01 13:36:00,
2014-10-01 09:38:00,67.3,65.8,29.99,ESE,103,3.0,-999.0,95,0.00,,,0.01,Wunderground v.1.15,2014-10-01 13:38:00,
2014-10-01 09:41:00,67.4,65.6,29.99,ESE,110,0.0,-999.0,94,0.00,,,0.01,Wunderground v.1.15,2014-10-01 13:41:00,
2014-10-01 09:43:00,67.6,65.5,29.99,East,82,0.0,-999.0,93,0.00,,,0.01,Wunderground v.1.15,2014-10-01 13:43:00,
2014-10-01 09:44:00,67.6,65.5,29.99,East,82,0.0,-999.0,93,0.00,,,0.01,Wunderground v.1.15,2014-10-01 13:44:00,
2014-10-01 09:46:00,67.7,65.3,29.99,ENE,74,0.0,-999.0,92,0.00,,,0.01,Wunderground v.1.15,2014-10-01 13:46:00,
2014-10-01 09:49:00,67.8,65.1,30.00,ENE,74,1.0,-999.0,91,0.00,,,0.01,Wunderground v.1.15,2014-10-01 13:49:00,
2014-10-01 09:51:00,67.9,65.2,30.00,ENE,74,0.0,-999.0,91,0.00,,,0.01,Wunderground v.1.15,2014-10-01 13:51:00,
2014-10-01 09:54:00,67.9,64.9,30.00,ENE,69,4.0,-999.0,90,0.00,,,0.01,Wunderground v.1.15,2014-10-01 13:54:00,
2014-10-01 09:57:00,67.8,64.8,30.00,ENE,68,0.0,-999.0,90,0.00,,,0.01,Wunderground v.1.15,2014-10-01 13:57:00,
2014-10-01 09:59:00,67.8,64.8,30.00,NE,49,0.0,-999.0,90,0.00,,,0.01,Wunderground v.1.15,2014-10-01 13:59:00,
2014-10-01 10:00:00,67.7,64.7,30.00,NE,49,1.0,-999.0,90,0.00,,,0.01,Wunderground v.1.15,2014-10-01 14:00:00,
2014-10-01 10:03:00,67.7,64.7,30.00,NE,49,0.0,-999.0,90,0.00,,,0.01,Wunderground v.1.15,2014-10-01 14:03:00,
2014-10-01 10:04:00,67.7,64.3,30.00,NE,49,0.0,-999.0,89,0.00,,,0.01,Wunderground v.1.15,2014-10-01 14:04:00,
2014-10-01 10:05:00,67.7,64.3,30.00,NE,49,0.0,-999.0,89,0.00,,,0.01,Wunderground v.1.15,2014-10-01 14:05:00,
2014-10-01 10:09:00,67.6,64.2,30.00,NNE,26,1.0,-999.0,89,0.00,,,0.01,Wunderground v.1.15,2014-10-01 14:09:00,
2014-10-01 10:10:00,67.6,64.2,30.00,NNE,26,3.0,-999.0,89,0.00,,,0.01,Wunderground v.1.15,2014-10-01 14:10:00,
2014-10-01 10:11:00,67.6,63.9,30.00,NNE,28,0.0,-999.0,88,0.00,,,0.01,Wunderground v.1.15,2014-10-01 14:11:00,
2014-10-01 10:14:00,67.6,64.2,30.00,ENE,62,0.0,-999.0,89,0.00,,,0.01,Wunderground v.1.15,2014-10-01 14:14:00,
2014-10-01 10:15:00,67.6,64.2,30.01,NE,36,5.0,-999.0,89,0.00,,,0.01,Wunderground v.1.15,2014-10-01 14:15:00,
2014-10-01 10:17:00,67.6,63.9,30.01,NE,40,0.0,-999.0,88,0.00,,,0.01,Wunderground v.1.15,2014-10-01 14:17:00,
2014-10-01 10:20:00,67.6,63.9,30.01,NE,40,0.0,-999.0,88,0.00,,,0.01,Wunderground v.1.15,2014-10-01 14:20:00,
2014-10-01 10:23:00,67.6,63.9,30.01,NE,40,0.0,-999.0,88,0.00,,,0.01,Wunderground v.1.15,2014-10-01 14:23:00,
2014-10-01 10:25:00,67.6,63.9,30.01,NE,40,2.0,-999.0,88,0.00,,,0.01,Wunderground v.1.15,2014-10-01 14:25:00,
2014-10-01 10:28:00,67.5,63.5,30.01,NE,44,0.0,-999.0,87,0.00,,,0.01,Wunderground v.1.15,2014-10-01 14:28:00,
2014-10-01 10:30:00,67.6,63.6,30.01,NE,44,3.0,-999.0,87,0.00,,,0.01,Wunderground v.1.15,2014-10-01 14:30:00,
2014-10-01 10:33:00,67.8,63.8,30.01,NE,44,0.0,-999.0,87,0.00,,,0.01,Wunderground v.1.15,2014-10-01 14:33:00,
2014-10-01 10:35:00,67.9,64.2,30.01,NE,44,0.0,-999.0,88,0.00,,,0.01,Wunderground v.1.15,2014-10-01 14:35:00,
2014-10-01 10:38:00,68.0,64.0,30.01,NE,44,0.0,-999.0,87,0.00,,,0.01,Wunderground v.1.15,2014-10-01 14:38:00,
2014-10-01 10:40:00,68.1,64.4,30.01,NE,44,0.0,-999.0,88,0.00,,,0.01,Wunderground v.1.15,2014-10-01 14:40:00,
2014-10-01 10:41:00,68.1,64.4,30.01,NE,44,0.0,-999.0,88,0.00,,,0.01,Wunderground v.1.15,2014-10-01 14:41:00,
2014-10-01 10:43:00,68.4,64.7,30.01,NE,44,0.0,-999.0,88,0.00,,,0.01,Wunderground v.1.15,2014-10-01 14:43:00,
2014-10-01 10:45:00,68.5,64.5,30.01,NE,49,3.0,-999.0,87,0.00,,,0.01,Wunderground v.1.15,2014-10-01 14:45:00,
2014-10-01 10:46:00,68.5,64.5,30.01,NE,49,1.0,-999.0,87,0.00,,,0.01,Wunderground v.1.15,2014-10-01 14:46:00,
2014-10-01 10:48:00,68.5,63.5,30.01,NE,55,2.0,-999.0,84,0.00,,,0.01,Wunderground v.1.15,2014-10-01 14:48:00,
2014-10-01 10:51:00,68.6,63.2,30.01,NE,55,0.0,-999.0,83,0.00,,,0.01,Wunderground v.1.15,2014-10-01 14:51:00,
2014-10-01 10:54:00,68.7,63.3,30.01,ENE,57,1.0,-999.0,83,0.00,,,0.01,Wunderground v.1.15,2014-10-01 14:54:00,
2014-10-01 10:56:00,68.8,63.1,30.01,ENE,58,3.0,-999.0,82,0.00,,,0.01,Wunderground v.1.15,2014-10-01 14:56:00,
2014-10-01 10:57:00,68.8,63.1,30.01,ENE,57,0.0,-999.0,82,0.00,,,0.01,Wunderground v.1.15,2014-10-01 14:57:00,
2014-10-01 10:59:00,68.9,63.2,30.01,ENE,63,3.0,-999.0,82,0.00,,,0.01,Wunderground v.1.15,2014-10-01 14:59:00,
2014-10-01 11:01:00,69.0,63.3,30.01,ENE,63,0.0,-999.0,82,0.00,,,0.01,Wunderground v.1.15,2014-10-01 15:01:00,
2014-10-01 11:02:00,69.0,63.3,30.01,ENE,63,0.0,-999.0,82,0.00,,,0.01,Wunderground v.1.15,2014-10-01 15:02:00,
2014-10-01 11:04:00,69.1,63.0,30.02,East,87,0.0,-999.0,81,0.00,,,0.01,Wunderground v.1.15,2014-10-01 15:04:00,
2014-10-01 11:07:00,69.1,63.0,30.02,ENE,73,4.0,-999.0,81,0.00,,,0.01,Wunderground v.1.15,2014-10-01 15:07:00,
2014-10-01 11:09:00,69.2,63.1,30.02,ENE,72,0.0,-999.0,81,0.00,,,0.01,Wunderground v.1.15,2014-10-01 15:09:00,
2014-10-01 11:12:00,69.3,63.6,30.01,ENE,73,0.0,-999.0,82,0.00,,,0.01,Wunderground v.1.15,2014-10-01 15:12:00,
2014-10-01 11:16:00,69.6,63.5,30.01,ENE,73,0.0,-999.0,81,0.00,,,0.01,Wunderground v.1.15,2014-10-01 15:16:00,
2014-10-01 11:17:00,69.7,64.0,30.01,ENE,72,0.0,-999.0,82,0.00,,,0.01,Wunderground v.1.15,2014-10-01 15:17:00,
2014-10-01 11:21:00,69.9,63.4,30.01,ENE,72,0.0,-999.0,80,0.00,,,0.01,Wunderground v.1.15,2014-10-01 15:21:00,
2014-10-01 11:22:00,70.0,63.5,30.01,ENE,73,0.0,-999.0,80,0.00,,,0.01,Wunderground v.1.15,2014-10-01 15:22:00,
2014-10-01 11:26:00,70.2,63.7,30.01,ENE,73,0.0,-999.0,80,0.00,,,0.01,Wunderground v.1.15,2014-10-01 15:26:00,
2014-10-01 11:28:00,70.3,64.2,30.01,ENE,73,0.0,-999.0,81,0.00,,,0.01,Wunderground v.1.15,2014-10-01 15:28:00,
2014-10-01 11:32:00,70.6,64.1,30.00,ENE,72,0.0,-999.0,80,0.00,,,0.01,Wunderground v.1.15,2014-10-01 15:32:00,
2014-10-01 11:33:00,70.6,64.1,30.01,ENE,72,0.0,-999.0,80,0.00,,,0.01,Wunderground v.1.15,2014-10-01 15:33:00,
2014-10-01 11:37:00,70.7,63.9,30.00,ENE,71,3.0,-999.0,79,0.00,,,0.01,Wunderground v.1.15,2014-10-01 15:37:00,
2014-10-01 11:38:00,70.7,63.9,30.00,ENE,63,2.0,-999.0,79,0.00,,,0.01,Wunderground v.1.15,2014-10-01 15:38:00,
2014-10-01 11:40:00,70.7,63.9,30.00,NE,55,1.0,-999.0,79,0.00,,,0.01,Wunderground v.1.15,2014-10-01 15:40:00,
2014-10-01 11:42:00,70.7,63.5,30.00,NE,42,0.0,-999.0,78,0.00,,,0.01,Wunderground v.1.15,2014-10-01 15:42:00,
2014-10-01 11:43:00,70.7,63.9,30.00,NE,42,0.0,-999.0,79,0.00,,,0.01,Wunderground v.1.15,2014-10-01 15:43:00,
2014-10-01 11:47:00,70.8,64.0,30.01,North,9,0.0,-999.0,79,0.00,,,0.01,Wunderground v.1.15,2014-10-01 15:47:00,
2014-10-01 11:49:00,70.8,64.0,30.01,North,10,3.0,-999.0,79,0.00,,,0.01,Wunderground v.1.15,2014-10-01 15:49:00,
2014-10-01 11:53:00,70.9,64.1,30.01,NNE,16,2.0,-999.0,79,0.00,,,0.01,Wunderground v.1.15,2014-10-01 15:53:00,
2014-10-01 11:54:00,70.9,63.7,30.01,NNE,15,2.0,-999.0,78,0.00,,,0.01,Wunderground v.1.15,2014-10-01 15:54:00,
2014-10-01 11:58:00,70.9,63.3,30.00,NNW,331,1.0,-999.0,77,0.00,,,0.01,Wunderground v.1.15,2014-10-01 15:58:00,
2014-10-01 11:59:00,70.9,63.3,30.00,NNW,331,2.0,-999.0,77,0.00,,,0.01,Wunderground v.1.15,2014-10-01 15:59:00,
2014-10-01 12:00:00,70.9,63.3,30.00,NNW,331,0.0,-999.0,77,0.00,,,0.01,Wunderground v.1.15,2014-10-01 16:00:00,
2014-10-01 12:03:00,71.1,63.9,30.00,NW,308,3.0,-999.0,78,0.00,,,0.01,Wunderground v.1.15,2014-10-01 16:03:00,
2014-10-01 12:05:00,71.2,64.0,30.00,NW,304,0.0,-999.0,78,0.00,,,0.01,Wunderground v.1.15,2014-10-01 16:05:00,
2014-10-01 12:08:00,71.6,64.4,30.00,NNW,336,0.0,-999.0,78,0.00,,,0.01,Wunderground v.1.15,2014-10-01 16:08:00,
2014-10-01 12:10:00,71.8,64.6,30.00,NNW,336,4.0,-999.0,78,0.00,,,0.01,Wunderground v.1.15,2014-10-01 16:10:00,
2014-10-01 12:14:00,72.1,64.9,30.00,NW,319,1.0,-999.0,78,0.00,,,0.01,Wunderground v.1.15,2014-10-01 16:14:00,
2014-10-01 12:15:00,72.2,64.6,30.00,NW,325,0.0,-999.0,77,0.00,,,0.01,Wunderground v.1.15,2014-10-01 16:15:00,
2014-10-01 12:19:00,72.4,64.4,30.00,NE,46,4.0,-999.0,76,0.00,,,0.01,Wunderground v.1.15,2014-10-01 16:19:00,
2014-10-01 12:20:00,72.3,63.9,30.00,NE,43,0.0,-999.0,75,0.00,,,0.01,Wunderground v.1.15,2014-10-01 16:20:00,
2014-10-01 12:24:00,72.2,64.2,30.00,North,355,0.0,-999.0,76,0.00,,,0.01,Wunderground v.1.15,2014-10-01 16:24:00,
2014-10-01 12:25:00,72.2,64.2,30.00,North,355,0.0,-999.0,76,0.00,,,0.01,Wunderground v.1.15,2014-10-01 16:25:00,
2014-10-01 12:26:00,72.2,64.2,30.00,North,355,2.0,-999.0,76,0.00,,,0.01,Wunderground v.1.15,2014-10-01 16:26:00,
2014-10-01 12:29:00,72.4,64.8,30.00,NNE,19,2.0,-999.0,77,0.00,,,0.01,Wunderground v.1.15,2014-10-01 16:29:00,
2014-10-01 12:31:00,72.4,64.0,30.00,NNE,18,0.0,-999.0,75,0.00,,,0.01,Wunderground v.1.15,2014-10-01 16:31:00,
2014-10-01 12:35:00,72.6,64.6,30.00,ENE,71,0.0,-999.0,76,0.00,,,0.01,Wunderground v.1.15,2014-10-01 16:35:00,
2014-10-01 12:36:00,72.5,64.1,30.00,ENE,71,2.0,-999.0,75,0.00,,,0.01,Wunderground v.1.15,2014-10-01 16:36:00,
2014-10-01 12:40:00,72.3,64.3,30.00,South,169,2.0,-999.0,76,0.00,,,0.01,Wunderground v.1.15,2014-10-01 16:40:00,
2014-10-01 12:41:00,72.2,63.8,30.00,SSE,168,0.0,-999.0,75,0.00,,,0.01,Wunderground v.1.15,2014-10-01 16:41:00,
2014-10-01 12:45:00,72.5,64.1,30.00,SE,135,1.0,-999.0,75,0.00,,,0.01,Wunderground v.1.15,2014-10-01 16:45:00,
2014-10-01 12:46:00,72.5,63.7,30.00,ESE,117,0.0,-999.0,74,0.00,,,0.01,Wunderground v.1.15,2014-10-01 16:46:00,
2014-10-01 12:47:00,72.5,63.7,29.99,ESE,117,0.0,-999.0,74,0.00,,,0.01,Wunderground v.1.15,2014-10-01 16:47:00,
2014-10-01 12:50:00,72.7,64.3,29.99,NNE,14,1.0,-999.0,75,0.00,,,0.01,Wunderground v.1.15,2014-10-01 16:50:00,
2014-10-01 12:52:00,72.7,64.3,30.00,NNE,14,0.0,-999.0,75,0.00,,,0.01,Wunderground v.1.15,2014-10-01 16:52:00,
2014-10-01 12:56:00,72.8,64.0,30.00,NNE,26,0.0,-999.0,74,0.00,,,0.01,Wunderground v.1.15,2014-10-01 16:56:00,
2014-10-01 12:57:00,72.8,64.0,29.99,NNE,20,2.0,-999.0,74,0.00,,,0.01,Wunderground v.1.15,2014-10-01 16:57:00,
2014-10-01 13:01:00,72.9,64.1,29.99,NNE,17,2.0,-999.0,74,0.00,,,0.01,Wunderground v.1.15,2014-10-01 17:01:00,
2014-10-01 13:02:00,73.0,64.2,29.99,NNE,17,0.0,-999.0,74,0.00,,,0.01,Wunderground v.1.15,2014-10-01 17:02:00,
2014-10-01 13:06:00,73.0,64.2,29.99,NNE,33,0.0,-999.0,74,0.00,,,0.01,Wunderground v.1.15,2014-10-01 17:06:00,
2014-10-01 13:08:00,72.9,64.5,29.99,North,355,5.0,-999.0,75,0.00,,,0.01,Wunderground v.1.15,2014-10-01 17:08:00,
2014-10-01 13:11:00,72.6,64.2,29.99,North,355,0.0,-999.0,75,0.00,,,0.01,Wunderground v.1.15,2014-10-01 17:11:00,
2014-10-01 13:13:00,72.5,64.1,29.99,North,355,1.0,-999.0,75,0.00,,,0.01,Wunderground v.1.15,2014-10-01 17:13:00,
2014-10-01 13:17:00,72.2,63.8,29.99,North,355,2.0,-999.0,75,0.00,,,0.01,Wunderground v.1.15,2014-10-01 17:17:00,
2014-10-01 13:18:00,72.1,64.1,29.99,North,355,3.0,-999.0,76,0.00,,,0.01,Wunderground v.1.15,2014-10-01 17:18:00,
2014-10-01 13:22:00,71.8,64.2,29.99,North,355,0.0,-999.0,77,0.00,,,0.01,Wunderground v.1.15,2014-10-01 17:22:00,
2014-10-01 13:23:00,71.8,64.2,29.99,North,355,0.0,-999.0,77,0.00,,,0.01,Wunderground v.1.15,2014-10-01 17:23:00,
2014-10-01 13:27:00,71.7,64.1,29.99,North,355,0.0,-999.0,77,0.00,,,0.01,Wunderground v.1.15,2014-10-01 17:27:00,
2014-10-01 13:28:00,71.7,64.1,29.99,NNW,346,1.0,-999.0,77,0.00,,,0.01,Wunderground v.1.15,2014-10-01 17:28:00,
2014-10-01 13:29:00,71.6,64.0,29.99,NNW,346,1.0,-999.0,77,0.00,,,0.01,Wunderground v.1.15,2014-10-01 17:29:00,
2014-10-01 13:33:00,71.6,64.0,29.99,NNW,346,0.0,-999.0,77,0.00,,,0.01,Wunderground v.1.15,2014-10-01 17:33:00,
2014-10-01 13:34:00,71.7,64.1,29.99,NNW,346,0.0,-999.0,77,0.00,,,0.01,Wunderground v.1.15,2014-10-01 17:34:00,
2014-10-01 13:38:00,71.7,64.1,29.99,NNW,346,0.0,-999.0,77,0.00,,,0.01,Wunderground v.1.15,2014-10-01 17:38:00,
2014-10-01 13:39:00,71.8,64.6,29.99,NNW,346,0.0,-999.0,78,0.00,,,0.01,Wunderground v.1.15,2014-10-01 17:39:00,
2014-10-01 13:43:00,71.9,64.3,29.98,NNW,346,0.0,-999.0,77,0.00,,,0.01,Wunderground v.1.15,2014-10-01 17:43:00,
2014-10-01 13:44:00,72.0,64.4,29.98,NNW,346,0.0,-999.0,77,0.00,,,0.01,Wunderground v.1.15,2014-10-01 17:44:00,
2014-10-01 13:45:00,72.0,64.4,29.98,NNW,346,1.0,-999.0,77,0.00,,,0.01,Wunderground v.1.15,2014-10-01 17:45:00,
2014-10-01 13:48:00,72.2,65.0,29.98,NNW,346,1.0,-999.0,78,0.00,,,0.01,Wunderground v.1.15,2014-10-01 17:48:00,
2014-10-01 13:50:00,72.3,64.7,29.98,NNW,346,1.0,-999.0,77,0.00,,,0.01,Wunderground v.1.15,2014-10-01 17:50:00,
2014-10-01 13:54:00,72.6,65.0,29.98,NNW,346,0.0,-999.0,77,0.00,,,0.01,Wunderground v.1.15,2014-10-01 17:54:00,
2014-10-01 13:55:00,72.6,65.0,29.98,NNW,346,0.0,-999.0,77,0.00,,,0.01,Wunderground v.1.15,2014-10-01 17:55:00,
2014-10-01 13:59:00,72.9,64.9,29.98,NNW,347,0.0,-999.0,76,0.00,,,0.01,Wunderground v.1.15,2014-10-01 17:59:00,
2014-10-01 14:00:00,72.9,64.9,29.98,NNW,347,0.0,-999.0,76,0.00,,,0.01,Wunderground v.1.15,2014-10-01 18:00:00,
2014-10-01 14:01:00,72.9,64.9,29.98,NNW,347,0.0,-999.0,76,0.00,,,0.01,Wunderground v.1.15,2014-10-01 18:01:00,
2014-10-01 14:04:00,73.0,65.0,29.98,North,355,3.0,-999.0,76,0.00,,,0.01,Wunderground v.1.15,2014-10-01 18:04:00,
2014-10-01 14:06:00,73.1,64.7,29.98,North,355,0.0,-999.0,75,0.00,,,0.01,Wunderground v.1.15,2014-10-01 18:06:00,
2014-10-01 14:10:00,73.0,65.0,29.98,North,355,0.0,-999.0,76,0.00,,,0.01,Wunderground v.1.15,2014-10-01 18:10:00,
2014-10-01 14:11:00,73.1,65.1,29.98,North,355,0.0,-999.0,76,0.00,,,0.01,Wunderground v.1.15,2014-10-01 18:11:00,
2014-10-01 14:12:00,73.0,65.4,29.98,North,355,0.0,-999.0,77,0.00,,,0.01,Wunderground v.1.15,2014-10-01 18:12:00,
2014-10-01 14:15:00,73.2,65.2,29.98,NNW,345,6.0,-999.0,76,0.00,,,0.01,Wunderground v.1.15,2014-10-01 18:15:00,
2014-10-01 14:17:00,73.1,65.1,29.98,NNW,338,4.0,-999.0,76,0.00,,,0.01,Wunderground v.1.15,2014-10-01 18:17:00,
2014-10-01 14:21:00,73.1,65.5,29.98,NNW,334,5.0,-999.0,77,0.00,,,0.01,Wunderground v.1.15,2014-10-01 18:21:00,
2014-10-01 14:22:00,73.1,65.1,29.98,NNW,341,4.0,-999.0,76,0.00,,,0.01,Wunderground v.1.15,2014-10-01 18:22:00,
2014-10-01 14:26:00,73.3,64.9,29.98,WNW,300,3.0,-999.0,75,0.00,,,0.01,Wunderground v.1.15,2014-10-01 18:26:00,
2014-10-01 14:27:00,73.3,64.9,29.98,North,360,5.0,-999.0,75,0.00,,,0.01,Wunderground v.1.15,2014-10-01 18:27:00,
2014-10-01 14:31:00,73.3,64.9,29.98,North,355,0.0,-999.0,75,0.00,,,0.01,Wunderground v.1.15,2014-10-01 18:31:00,
2014-10-01 14:32:00,73.5,65.1,29.98,North,355,1.0,-999.0,75,0.00,,,0.01,Wunderground v.1.15,2014-10-01 18:32:00,
2014-10-01 14:36:00,74.0,65.2,29.98,NE,34,5.0,-999.0,74,0.00,,,0.01,Wunderground v.1.15,2014-10-01 18:36:00,
2014-10-01 14:37:00,74.2,65.0,29.98,North,355,3.0,-999.0,73,0.00,,,0.01,Wunderground v.1.15,2014-10-01 18:37:00,
2014-10-01 14:38:00,74.2,65.0,29.98,North,355,5.0,-999.0,73,0.00,,,0.01,Wunderground v.1.15,2014-10-01 18:38:00,
2014-10-01 14:41:00,74.6,65.8,29.98,NNW,346,2.0,-999.0,74,0.00,,,0.01,Wunderground v.1.15,2014-10-01 18:41:00,
2014-10-01 14:42:00,74.8,64.8,29.98,NNW,344,4.0,-999.0,71,0.00,,,0.01,Wunderground v.1.15,2014-10-01 18:42:00,
2014-10-01 14:43:00,74.8,64.8,29.98,NNW,348,8.0,-999.0,71,0.00,,,0.01,Wunderground v.1.15,2014-10-01 18:43:00,
2014-10-01 14:46:00,75.0,65.0,29.97,NW,304,0.0,-999.0,71,0.00,,,0.01,Wunderground v.1.15,2014-10-01 18:46:00,
2014-10-01 14:47:00,75.0,65.0,29.97,North,351,0.0,-999.0,71,0.00,,,0.01,Wunderground v.1.15,2014-10-01 18:47:00,
2014-10-01 14:48:00,75.0,65.0,29.97,North,350,0.0,-999.0,71,0.00,,,0.01,Wunderground v.1.15,2014-10-01 18:48:00,
2014-10-01 14:51:00,75.1,65.1,29.98,NNE,25,5.0,-999.0,71,0.00,,,0.01,Wunderground v.1.15,2014-10-01 18:51:00,
2014-10-01 14:53:00,75.1,65.1,29.98,NNE,24,0.0,-999.0,71,0.00,,,0.01,Wunderground v.1.15,2014-10-01 18:53:00,
2014-10-01 14:57:00,75.3,65.6,29.97,NE,52,9.0,-999.0,72,0.00,,,0.01,Wunderground v.1.15,2014-10-01 18:57:00,
2014-10-01 14:58:00,75.4,65.3,29.97,ENE,61,4.0,-999.0,71,0.00,,,0.01,Wunderground v.1.15,2014-10-01 18:58:00,
2014-10-01 15:02:00,75.1,65.1,29.97,NE,56,4.0,-999.0,71,0.00,,,0.01,Wunderground v.1.15,2014-10-01 19:02:00,
2014-10-01 15:03:00,75.1,65.5,29.97,North,360,2.0,-999.0,72,0.00,,,0.01,Wunderground v.1.15,2014-10-01 19:03:00,
2014-10-01 15:07:00,74.8,65.2,29.97,NNW,343,2.0,-999.0,72,0.00,,,0.01,Wunderground v.1.15,2014-10-01 19:07:00,
2014-10-01 15:08:00,74.9,65.7,29.97,NNW,334,1.0,-999.0,73,0.00,,,0.01,Wunderground v.1.15,2014-10-01 19:08:00,
2014-10-01 15:09:00,74.9,65.3,29.97,NNW,334,3.0,-999.0,72,0.00,,,0.01,Wunderground v.1.15,2014-10-01 19:09:00,
2014-10-01 15:12:00,75.0,65.4,29.97,North,11,5.0,-999.0,72,0.00,,,0.01,Wunderground v.1.15,2014-10-01 19:12:00,
2014-10-01 15:14:00,75.3,65.6,29.97,NE,54,3.0,-999.0,72,0.00,,,0.01,Wunderground v.1.15,2014-10-01 19:14:00,
2014-10-01 15:18:00,75.5,65.0,29.97,ENE,57,2.0,-999.0,70,0.00,,,0.01,Wunderground v.1.15,2014-10-01 19:18:00,
2014-10-01 15:19:00,75.5,65.4,29.97,NE,55,3.0,-999.0,71,0.00,,,0.01,Wunderground v.1.15,2014-10-01 19:19:00,
2014-10-01 15:23:00,75.5,65.0,29.97,NE,52,0.0,-999.0,70,0.00,,,0.01,Wunderground v.1.15,2014-10-01 19:23:00,
2014-10-01 15:24:00,75.5,65.0,29.97,NE,51,3.0,-999.0,70,0.00,,,0.01,Wunderground v.1.15,2014-10-01 19:24:00,
2014-10-01 15:28:00,75.2,64.7,29.97,ENE,63,1.0,-999.0,70,0.00,,,0.01,Wunderground v.1.15,2014-10-01 19:28:00,
2014-10-01 15:29:00,75.1,65.1,29.97,ENE,63,0.0,-999.0,71,0.00,,,0.01,Wunderground v.1.15,2014-10-01 19:29:00,
2014-10-01 15:30:00,75.1,65.1,29.97,ENE,63,0.0,-999.0,71,0.00,,,0.01,Wunderground v.1.15,2014-10-01 19:30:00,
2014-10-01 15:33:00,74.7,65.1,29.97,ESE,118,7.0,-999.0,72,0.00,,,0.01,Wunderground v.1.15,2014-10-01 19:33:00,
2014-10-01 15:35:00,74.6,65.0,29.97,ESE,102,2.0,-999.0,72,0.00,,,0.01,Wunderground v.1.15,2014-10-01 19:35:00,
2014-10-01 15:37:00,74.5,64.9,29.97,ENE,67,4.0,-999.0,72,0.00,,,0.01,Wunderground v.1.15,2014-10-01 19:37:00,
2014-10-01 15:39:00,74.6,65.0,29.97,ENE,71,0.0,-999.0,72,0.00,,,0.01,Wunderground v.1.15,2014-10-01 19:39:00,
2014-10-01 15:40:00,74.5,64.9,29.97,ESE,109,3.0,-999.0,72,0.00,,,0.01,Wunderground v.1.15,2014-10-01 19:40:00,
2014-10-01 15:44:00,74.3,64.7,29.97,ESE,119,1.0,-999.0,72,0.00,,,0.01,Wunderground v.1.15,2014-10-01 19:44:00,
2014-10-01 15:45:00,74.2,64.2,29.97,ESE,107,3.0,-999.0,71,0.00,,,0.01,Wunderground v.1.15,2014-10-01 19:45:00,
2014-10-01 15:49:00,74.2,64.2,29.97,ESE,112,2.0,-999.0,71,0.00,,,0.01,Wunderground v.1.15,2014-10-01 19:49:00,
2014-10-01 15:50:00,74.2,64.6,29.97,ESE,110,3.0,-999.0,72,0.00,,,0.01,Wunderground v.1.15,2014-10-01 19:50:00,
2014-10-01 15:51:00,74.3,64.7,29.97,ESE,110,0.0,-999.0,72,0.00,,,0.01,Wunderground v.1.15,2014-10-01 19:51:00,
2014-10-01 15:56:00,74.7,63.9,29.96,East,91,3.0,-999.0,69,0.00,,,0.01,Wunderground v.1.15,2014-10-01 19:56:00,
2014-10-01 16:01:00,74.7,64.3,29.97,East,95,2.0,-999.0,70,0.00,,,0.01,Wunderground v.1.15,2014-10-01 20:01:00,
2014-10-01 16:02:00,74.6,64.6,29.97,ENE,65,4.0,-999.0,71,0.00,,,0.01,Wunderground v.1.15,2014-10-01 20:02:00,
2014-10-01 16:06:00,74.3,64.3,29.97,NE,44,3.0,-999.0,71,0.00,,,0.01,Wunderground v.1.15,2014-10-01 20:06:00,
2014-10-01 16:07:00,74.2,64.2,29.97,NE,49,3.0,-999.0,71,0.00,,,0.01,Wunderground v.1.15,2014-10-01 20:07:00,
2014-10-01 16:11:00,73.7,64.1,29.97,NE,42,0.0,-999.0,72,0.00,,,0.01,Wunderground v.1.15,2014-10-01 20:11:00,
2014-10-01 16:12:00,73.7,64.1,29.97,NE,42,0.0,-999.0,72,0.00,,,0.01,Wunderground v.1.15,2014-10-01 20:12:00,
2014-10-01 16:16:00,73.3,63.3,29.97,NE,34,4.0,-999.0,71,0.00,,,0.01,Wunderground v.1.15,2014-10-01 20:16:00,
2014-10-01 16:18:00,73.2,63.6,29.97,NNE,33,2.0,-999.0,72,0.00,,,0.01,Wunderground v.1.15,2014-10-01 20:18:00,
2014-10-01 16:19:00,73.2,63.6,29.97,ENE,68,5.0,-999.0,72,0.00,,,0.01,Wunderground v.1.15,2014-10-01 20:19:00,
2014-10-01 16:21:00,73.0,63.8,29.97,NE,43,3.0,-999.0,73,0.00,,,0.01,Wunderground v.1.15,2014-10-01 20:21:00,
2014-10-01 16:23:00,72.9,64.1,29.97,ENE,65,3.0,-999.0,74,0.00,,,0.01,Wunderground v.1.15,2014-10-01 20:23:00,
2014-10-01 16:24:00,72.8,64.0,29.97,NE,38,3.0,-999.0,74,0.00,,,0.01,Wunderground v.1.15,2014-10-01 20:24:00,
2014-10-01 16:26:00,72.6,63.8,29.97,NNE,30,2.0,-999.0,74,0.00,,,0.01,Wunderground v.1.15,2014-10-01 20:26:00,
2014-10-01 16:28:00,72.6,64.2,29.97,NE,51,4.0,-999.0,75,0.00,,,0.01,Wunderground v.1.15,2014-10-01 20:28:00,
2014-10-01 16:29:00,72.5,64.1,29.97,ENE,64,1.0,-999.0,75,0.00,,,0.01,Wunderground v.1.15,2014-10-01 20:29:00,
2014-10-01 16:32:00,72.3,63.9,29.97,ENE,76,3.0,-999.0,75,0.00,,,0.01,Wunderground v.1.15,2014-10-01 20:32:00,
2014-10-01 16:33:00,72.3,63.9,29.97,ENE,57,4.0,-999.0,75,0.00,,,0.01,Wunderground v.1.15,2014-10-01 20:33:00,
2014-10-01 16:34:00,72.2,63.8,29.97,NNE,32,1.0,-999.0,75,0.00,,,0.01,Wunderground v.1.15,2014-10-01 20:34:00,
2014-10-01 16:37:00,72.1,63.7,29.97,NE,49,0.0,-999.0,75,0.00,,,0.01,Wunderground v.1.15,2014-10-01 20:37:00,
2014-10-01 16:38:00,72.1,63.7,29.97,East,79,2.0,-999.0,75,0.00,,,0.01,Wunderground v.1.15,2014-10-01 20:38:00,
2014-10-01 16:39:00,72.1,64.1,29.97,ENE,78,3.0,-999.0,76,0.00,,,0.01,Wunderground v.1.15,2014-10-01 20:39:00,
2014-10-01 16:42:00,72.1,64.1,29.97,ENE,76,3.0,-999.0,76,0.00,,,0.01,Wunderground v.1.15,2014-10-01 20:42:00,